sensor_id;sensor_type;location;lat;lon;timestamp;temperature;humidity
52103;DHT22;38101;53.126;6.878;2023-07-24T00:00:42;17.80;99.90
52103;DHT22;38101;53.126;6.878;2023-07-24T00:03:08;17.80;99.90
52103;DHT22;38101;53.126;6.878;2023-07-24T00:05:34;17.80;99.90
52103;DHT22;38101;53.126;6.878;2023-07-24T00:08:00;17.80;99.90
52103;DHT22;38101;53.126;6.878;2023-07-24T00:10:25;17.80;99.90
52103;DHT22;38101;53.126;6.878;2023-07-24T00:12:51;17.70;99.90
52103;DHT22;38101;53.126;6.878;2023-07-24T00:15:17;17.70;99.90
52103;DHT22;38101;53.126;6.878;2023-07-24T00:17:43;17.70;99.90
52103;DHT22;38101;53.126;6.878;2023-07-24T00:20:09;17.70;99.90
52103;DHT22;38101;53.126;6.878;2023-07-24T00:22:34;17.80;99.90
52103;DHT22;38101;53.126;6.878;2023-07-24T00:25:00;17.70;99.90
52103;DHT22;38101;53.126;6.878;2023-07-24T00:27:26;17.70;99.90
52103;DHT22;38101;53.126;6.878;2023-07-24T00:29:51;17.60;99.90
52103;DHT22;38101;53.126;6.878;2023-07-24T00:32:17;17.60;99.90
52103;DHT22;38101;53.126;6.878;2023-07-24T00:34:43;17.60;99.90
52103;DHT22;38101;53.126;6.878;2023-07-24T00:37:08;17.60;99.90
52103;DHT22;38101;53.126;6.878;2023-07-24T00:39:34;17.60;99.90
52103;DHT22;38101;53.126;6.878;2023-07-24T00:42:00;17.60;99.90
52103;DHT22;38101;53.126;6.878;2023-07-24T00:44:25;17.60;99.90
52103;DHT22;38101;53.126;6.878;2023-07-24T00:46:51;17.60;99.90
52103;DHT22;38101;53.126;6.878;2023-07-24T00:49:17;17.50;99.90
52103;DHT22;38101;53.126;6.878;2023-07-24T00:51:43;17.50;99.90
52103;DHT22;38101;53.126;6.878;2023-07-24T00:54:11;17.50;99.90
52103;DHT22;38101;53.126;6.878;2023-07-24T00:56:37;17.40;99.90
52103;DHT22;38101;53.126;6.878;2023-07-24T00:59:03;17.40;99.90
52103;DHT22;38101;53.126;6.878;2023-07-24T01:01:28;17.40;99.90
52103;DHT22;38101;53.126;6.878;2023-07-24T01:03:56;17.40;99.90
52103;DHT22;38101;53.126;6.878;2023-07-24T01:06:23;17.40;99.90
52103;DHT22;38101;53.126;6.878;2023-07-24T01:08:49;17.40;99.90
52103;DHT22;38101;53.126;6.878;2023-07-24T01:11:19;17.30;99.90
52103;DHT22;38101;53.126;6.878;2023-07-24T01:13:56;17.30;99.90
52103;DHT22;38101;53.126;6.878;2023-07-24T01:16:27;17.30;99.90
52103;DHT22;38101;53.126;6.878;2023-07-24T01:18:55;17.30;99.90
52103;DHT22;38101;53.126;6.878;2023-07-24T01:21:29;17.30;99.90
52103;DHT22;38101;53.126;6.878;2023-07-24T01:24:03;17.30;99.90
52103;DHT22;38101;53.126;6.878;2023-07-24T01:26:32;17.30;99.90
52103;DHT22;38101;53.126;6.878;2023-07-24T01:28:58;17.20;99.90
52103;DHT22;38101;53.126;6.878;2023-07-24T01:31:24;17.20;99.90
52103;DHT22;38101;53.126;6.878;2023-07-24T01:33:49;17.20;99.90
52103;DHT22;38101;53.126;6.878;2023-07-24T01:36:15;17.30;99.90
52103;DHT22;38101;53.126;6.878;2023-07-24T01:38:42;17.20;99.90
52103;DHT22;38101;53.126;6.878;2023-07-24T01:41:07;17.30;99.90
52103;DHT22;38101;53.126;6.878;2023-07-24T01:43:34;17.30;99.90
52103;DHT22;38101;53.126;6.878;2023-07-24T01:46:00;17.30;99.90
52103;DHT22;38101;53.126;6.878;2023-07-24T01:48:25;17.20;99.90
52103;DHT22;38101;53.126;6.878;2023-07-24T01:50:51;17.20;99.90
52103;DHT22;38101;53.126;6.878;2023-07-24T01:53:16;17.30;99.90
52103;DHT22;38101;53.126;6.878;2023-07-24T01:55:42;17.30;99.90
52103;DHT22;38101;53.126;6.878;2023-07-24T01:58:08;17.30;99.90
52103;DHT22;38101;53.126;6.878;2023-07-24T02:00:34;17.30;99.90
52103;DHT22;38101;53.126;6.878;2023-07-24T02:02:59;17.30;99.90
52103;DHT22;38101;53.126;6.878;2023-07-24T02:05:26;17.30;99.90
52103;DHT22;38101;53.126;6.878;2023-07-24T02:07:51;17.20;99.90
52103;DHT22;38101;53.126;6.878;2023-07-24T02:10:17;17.20;99.90
52103;DHT22;38101;53.126;6.878;2023-07-24T02:12:43;17.30;99.90
52103;DHT22;38101;53.126;6.878;2023-07-24T02:15:09;17.20;99.90
52103;DHT22;38101;53.126;6.878;2023-07-24T02:17:34;17.30;99.90
52103;DHT22;38101;53.126;6.878;2023-07-24T02:20:00;17.30;99.90
52103;DHT22;38101;53.126;6.878;2023-07-24T02:22:26;17.30;99.90
52103;DHT22;38101;53.126;6.878;2023-07-24T02:24:52;17.30;99.90
52103;DHT22;38101;53.126;6.878;2023-07-24T02:27:30;17.30;99.90
52103;DHT22;38101;53.126;6.878;2023-07-24T02:30:00;17.30;99.90
52103;DHT22;38101;53.126;6.878;2023-07-24T02:32:26;17.30;99.90
52103;DHT22;38101;53.126;6.878;2023-07-24T02:34:52;17.30;99.90
52103;DHT22;38101;53.126;6.878;2023-07-24T02:37:18;17.30;99.90
52103;DHT22;38101;53.126;6.878;2023-07-24T02:39:45;17.30;99.90
52103;DHT22;38101;53.126;6.878;2023-07-24T02:42:10;17.30;99.90
52103;DHT22;38101;53.126;6.878;2023-07-24T02:44:36;17.30;99.90
52103;DHT22;38101;53.126;6.878;2023-07-24T02:47:02;17.30;99.90
52103;DHT22;38101;53.126;6.878;2023-07-24T02:49:28;17.30;99.90
52103;DHT22;38101;53.126;6.878;2023-07-24T02:51:54;17.30;99.90
52103;DHT22;38101;53.126;6.878;2023-07-24T02:54:20;17.30;99.90
52103;DHT22;38101;53.126;6.878;2023-07-24T02:56:46;17.30;99.90
52103;DHT22;38101;53.126;6.878;2023-07-24T02:59:11;17.30;99.90
52103;DHT22;38101;53.126;6.878;2023-07-24T03:01:37;17.30;99.90
52103;DHT22;38101;53.126;6.878;2023-07-24T03:04:03;17.20;99.90
52103;DHT22;38101;53.126;6.878;2023-07-24T03:06:30;17.20;99.90
52103;DHT22;38101;53.126;6.878;2023-07-24T03:08:56;17.20;99.90
52103;DHT22;38101;53.126;6.878;2023-07-24T03:11:22;17.20;99.90
52103;DHT22;38101;53.126;6.878;2023-07-24T03:13:48;17.20;99.90
52103;DHT22;38101;53.126;6.878;2023-07-24T03:16:14;17.20;99.90
52103;DHT22;38101;53.126;6.878;2023-07-24T03:18:39;17.10;99.90
52103;DHT22;38101;53.126;6.878;2023-07-24T03:21:05;17.10;99.90
52103;DHT22;38101;53.126;6.878;2023-07-24T03:23:31;17.20;99.90
52103;DHT22;38101;53.126;6.878;2023-07-24T03:25:57;17.20;99.90
52103;DHT22;38101;53.126;6.878;2023-07-24T03:28:22;17.10;99.90
52103;DHT22;38101;53.126;6.878;2023-07-24T03:30:48;17.10;99.90
52103;DHT22;38101;53.126;6.878;2023-07-24T03:33:14;17.10;99.90
52103;DHT22;38101;53.126;6.878;2023-07-24T03:35:40;17.10;99.90
52103;DHT22;38101;53.126;6.878;2023-07-24T03:38:05;17.10;99.90
52103;DHT22;38101;53.126;6.878;2023-07-24T03:40:31;17.10;99.90
52103;DHT22;38101;53.126;6.878;2023-07-24T03:42:57;17.10;99.90
52103;DHT22;38101;53.126;6.878;2023-07-24T03:45:23;17.10;99.90
52103;DHT22;38101;53.126;6.878;2023-07-24T03:47:49;17.10;99.90
52103;DHT22;38101;53.126;6.878;2023-07-24T03:50:16;17.10;99.90
52103;DHT22;38101;53.126;6.878;2023-07-24T03:52:42;17.00;99.90
52103;DHT22;38101;53.126;6.878;2023-07-24T03:55:08;17.10;99.90
52103;DHT22;38101;53.126;6.878;2023-07-24T03:57:34;17.10;99.90
52103;DHT22;38101;53.126;6.878;2023-07-24T04:00:01;17.10;99.90
52103;DHT22;38101;53.126;6.878;2023-07-24T04:02:26;17.10;99.90
52103;DHT22;38101;53.126;6.878;2023-07-24T04:04:52;17.10;99.90
52103;DHT22;38101;53.126;6.878;2023-07-24T04:07:18;17.10;99.90
52103;DHT22;38101;53.126;6.878;2023-07-24T04:09:43;17.10;99.90
52103;DHT22;38101;53.126;6.878;2023-07-24T04:12:09;17.10;99.90
52103;DHT22;38101;53.126;6.878;2023-07-24T04:14:35;17.10;99.90
52103;DHT22;38101;53.126;6.878;2023-07-24T04:17:01;17.10;99.90
52103;DHT22;38101;53.126;6.878;2023-07-24T04:19:26;17.10;99.90
52103;DHT22;38101;53.126;6.878;2023-07-24T04:21:52;17.10;99.90
52103;DHT22;38101;53.126;6.878;2023-07-24T04:24:18;17.10;99.90
52103;DHT22;38101;53.126;6.878;2023-07-24T04:26:43;17.10;99.90
52103;DHT22;38101;53.126;6.878;2023-07-24T04:29:09;17.10;99.90
52103;DHT22;38101;53.126;6.878;2023-07-24T04:31:35;17.10;99.90
52103;DHT22;38101;53.126;6.878;2023-07-24T04:34:01;17.20;99.90
52103;DHT22;38101;53.126;6.878;2023-07-24T04:36:26;17.20;99.90
52103;DHT22;38101;53.126;6.878;2023-07-24T04:38:52;17.20;99.90
52103;DHT22;38101;53.126;6.878;2023-07-24T04:41:18;17.20;99.90
52103;DHT22;38101;53.126;6.878;2023-07-24T04:43:44;17.20;99.90
52103;DHT22;38101;53.126;6.878;2023-07-24T04:46:10;17.20;99.90
52103;DHT22;38101;53.126;6.878;2023-07-24T04:48:35;17.20;99.90
52103;DHT22;38101;53.126;6.878;2023-07-24T04:51:02;17.20;99.90
52103;DHT22;38101;53.126;6.878;2023-07-24T04:53:27;17.20;99.90
52103;DHT22;38101;53.126;6.878;2023-07-24T04:55:53;17.20;99.90
52103;DHT22;38101;53.126;6.878;2023-07-24T04:58:19;17.20;99.90
52103;DHT22;38101;53.126;6.878;2023-07-24T05:00:45;17.20;99.90
52103;DHT22;38101;53.126;6.878;2023-07-24T05:03:10;17.30;99.90
52103;DHT22;38101;53.126;6.878;2023-07-24T05:05:37;17.30;99.90
52103;DHT22;38101;53.126;6.878;2023-07-24T05:08:04;17.30;99.90
52103;DHT22;38101;53.126;6.878;2023-07-24T05:10:37;17.30;99.90
52103;DHT22;38101;53.126;6.878;2023-07-24T05:13:03;17.30;99.90
52103;DHT22;38101;53.126;6.878;2023-07-24T05:15:29;17.30;99.90
52103;DHT22;38101;53.126;6.878;2023-07-24T05:17:54;17.30;99.90
52103;DHT22;38101;53.126;6.878;2023-07-24T05:20:20;17.30;99.90
52103;DHT22;38101;53.126;6.878;2023-07-24T05:22:46;17.30;99.90
52103;DHT22;38101;53.126;6.878;2023-07-24T05:25:11;17.30;99.90
52103;DHT22;38101;53.126;6.878;2023-07-24T05:27:37;17.40;99.90
52103;DHT22;38101;53.126;6.878;2023-07-24T05:30:04;17.40;99.90
52103;DHT22;38101;53.126;6.878;2023-07-24T05:32:29;17.40;99.90
52103;DHT22;38101;53.126;6.878;2023-07-24T05:34:55;17.40;99.90
52103;DHT22;38101;53.126;6.878;2023-07-24T05:37:21;17.40;99.90
52103;DHT22;38101;53.126;6.878;2023-07-24T05:39:47;17.40;99.90
52103;DHT22;38101;53.126;6.878;2023-07-24T05:42:12;17.40;99.90
52103;DHT22;38101;53.126;6.878;2023-07-24T05:44:38;17.50;99.90
52103;DHT22;38101;53.126;6.878;2023-07-24T05:47:04;17.50;99.90
52103;DHT22;38101;53.126;6.878;2023-07-24T05:49:29;17.60;99.90
52103;DHT22;38101;53.126;6.878;2023-07-24T05:51:55;17.60;99.90
52103;DHT22;38101;53.126;6.878;2023-07-24T05:54:22;17.70;99.90
52103;DHT22;38101;53.126;6.878;2023-07-24T05:56:49;17.70;99.90
52103;DHT22;38101;53.126;6.878;2023-07-24T05:59:15;17.70;99.90
52103;DHT22;38101;53.126;6.878;2023-07-24T06:01:40;17.80;99.90
52103;DHT22;38101;53.126;6.878;2023-07-24T06:04:06;17.70;99.90
52103;DHT22;38101;53.126;6.878;2023-07-24T06:06:33;17.80;99.90
52103;DHT22;38101;53.126;6.878;2023-07-24T06:08:58;17.80;99.90
52103;DHT22;38101;53.126;6.878;2023-07-24T06:11:24;17.80;99.90
52103;DHT22;38101;53.126;6.878;2023-07-24T06:13:51;17.80;99.90
52103;DHT22;38101;53.126;6.878;2023-07-24T06:16:18;17.80;99.90
52103;DHT22;38101;53.126;6.878;2023-07-24T06:18:44;17.90;99.90
52103;DHT22;38101;53.126;6.878;2023-07-24T06:21:10;17.80;99.90
52103;DHT22;38101;53.126;6.878;2023-07-24T06:23:35;17.80;99.90
52103;DHT22;38101;53.126;6.878;2023-07-24T06:26:01;17.90;99.90
52103;DHT22;38101;53.126;6.878;2023-07-24T06:28:27;17.90;99.90
52103;DHT22;38101;53.126;6.878;2023-07-24T06:30:54;17.80;99.90
52103;DHT22;38101;53.126;6.878;2023-07-24T06:33:20;17.80;99.90
52103;DHT22;38101;53.126;6.878;2023-07-24T06:35:48;17.80;99.90
52103;DHT22;38101;53.126;6.878;2023-07-24T06:38:14;17.80;99.90
52103;DHT22;38101;53.126;6.878;2023-07-24T06:40:40;17.90;99.90
52103;DHT22;38101;53.126;6.878;2023-07-24T06:43:06;17.90;99.90
52103;DHT22;38101;53.126;6.878;2023-07-24T06:45:31;17.90;99.90
52103;DHT22;38101;53.126;6.878;2023-07-24T06:47:57;17.90;99.90
52103;DHT22;38101;53.126;6.878;2023-07-24T06:50:23;18.00;99.90
52103;DHT22;38101;53.126;6.878;2023-07-24T06:52:48;18.00;99.90
52103;DHT22;38101;53.126;6.878;2023-07-24T06:55:16;18.00;99.90
52103;DHT22;38101;53.126;6.878;2023-07-24T06:57:42;18.10;99.90
52103;DHT22;38101;53.126;6.878;2023-07-24T07:00:08;18.10;99.90
52103;DHT22;38101;53.126;6.878;2023-07-24T07:02:37;18.20;99.90
52103;DHT22;38101;53.126;6.878;2023-07-24T07:05:03;18.20;99.90
52103;DHT22;38101;53.126;6.878;2023-07-24T07:07:29;18.20;99.90
52103;DHT22;38101;53.126;6.878;2023-07-24T07:09:55;18.30;99.90
52103;DHT22;38101;53.126;6.878;2023-07-24T07:12:21;18.30;99.90
52103;DHT22;38101;53.126;6.878;2023-07-24T07:14:46;18.40;99.90
52103;DHT22;38101;53.126;6.878;2023-07-24T07:17:12;18.40;99.90
52103;DHT22;38101;53.126;6.878;2023-07-24T07:19:38;18.30;99.90
52103;DHT22;38101;53.126;6.878;2023-07-24T07:22:04;18.40;99.90
52103;DHT22;38101;53.126;6.878;2023-07-24T07:24:30;18.40;99.90
52103;DHT22;38101;53.126;6.878;2023-07-24T07:26:56;18.40;99.90
52103;DHT22;38101;53.126;6.878;2023-07-24T07:29:21;18.50;99.90
52103;DHT22;38101;53.126;6.878;2023-07-24T07:31:47;18.50;99.90
52103;DHT22;38101;53.126;6.878;2023-07-24T07:34:13;18.50;99.90
52103;DHT22;38101;53.126;6.878;2023-07-24T07:36:39;18.60;99.90
52103;DHT22;38101;53.126;6.878;2023-07-24T07:39:05;18.60;99.90
52103;DHT22;38101;53.126;6.878;2023-07-24T07:41:30;18.60;99.90
52103;DHT22;38101;53.126;6.878;2023-07-24T07:43:57;18.70;99.90
52103;DHT22;38101;53.126;6.878;2023-07-24T07:46:22;18.70;99.90
52103;DHT22;38101;53.126;6.878;2023-07-24T07:48:48;18.80;99.90
52103;DHT22;38101;53.126;6.878;2023-07-24T07:51:15;18.80;99.90
52103;DHT22;38101;53.126;6.878;2023-07-24T07:53:40;18.90;99.90
52103;DHT22;38101;53.126;6.878;2023-07-24T07:56:06;18.90;99.90
52103;DHT22;38101;53.126;6.878;2023-07-24T07:58:32;18.90;99.90
52103;DHT22;38101;53.126;6.878;2023-07-24T08:00:58;19.00;99.90
52103;DHT22;38101;53.126;6.878;2023-07-24T08:03:28;19.00;99.90
52103;DHT22;38101;53.126;6.878;2023-07-24T08:05:57;19.00;99.90
52103;DHT22;38101;53.126;6.878;2023-07-24T08:08:23;19.10;99.90
52103;DHT22;38101;53.126;6.878;2023-07-24T08:10:48;19.10;99.90
52103;DHT22;38101;53.126;6.878;2023-07-24T08:13:14;19.20;99.90
52103;DHT22;38101;53.126;6.878;2023-07-24T08:15:40;19.20;99.90
52103;DHT22;38101;53.126;6.878;2023-07-24T08:18:06;19.30;99.90
52103;DHT22;38101;53.126;6.878;2023-07-24T08:20:35;19.30;99.90
52103;DHT22;38101;53.126;6.878;2023-07-24T08:23:05;19.40;99.90
52103;DHT22;38101;53.126;6.878;2023-07-24T08:25:31;19.50;99.90
52103;DHT22;38101;53.126;6.878;2023-07-24T08:27:56;19.50;99.90
52103;DHT22;38101;53.126;6.878;2023-07-24T08:30:22;19.50;99.90
52103;DHT22;38101;53.126;6.878;2023-07-24T08:32:48;19.50;99.90
52103;DHT22;38101;53.126;6.878;2023-07-24T08:35:15;19.50;99.90
52103;DHT22;38101;53.126;6.878;2023-07-24T08:37:44;19.40;99.90
52103;DHT22;38101;53.126;6.878;2023-07-24T08:40:11;19.40;99.90
52103;DHT22;38101;53.126;6.878;2023-07-24T08:42:42;19.40;99.90
52103;DHT22;38101;53.126;6.878;2023-07-24T08:45:11;19.40;99.90
52103;DHT22;38101;53.126;6.878;2023-07-24T08:47:40;19.50;99.90
52103;DHT22;38101;53.126;6.878;2023-07-24T08:50:07;19.50;99.90
52103;DHT22;38101;53.126;6.878;2023-07-24T08:52:35;19.50;99.90
52103;DHT22;38101;53.126;6.878;2023-07-24T08:55:02;19.60;99.90
52103;DHT22;38101;53.126;6.878;2023-07-24T08:57:29;19.60;99.90
52103;DHT22;38101;53.126;6.878;2023-07-24T08:59:55;19.70;99.90
52103;DHT22;38101;53.126;6.878;2023-07-24T09:02:20;19.70;99.90
52103;DHT22;38101;53.126;6.878;2023-07-24T09:04:46;19.70;99.90
52103;DHT22;38101;53.126;6.878;2023-07-24T09:07:12;19.80;99.90
52103;DHT22;38101;53.126;6.878;2023-07-24T09:09:39;19.90;99.90
52103;DHT22;38101;53.126;6.878;2023-07-24T09:12:05;20.00;99.90
52103;DHT22;38101;53.126;6.878;2023-07-24T09:14:31;20.00;99.90
52103;DHT22;38101;53.126;6.878;2023-07-24T09:17:04;20.10;99.90
52103;DHT22;38101;53.126;6.878;2023-07-24T09:19:30;20.10;99.90
52103;DHT22;38101;53.126;6.878;2023-07-24T09:21:55;20.10;99.90
52103;DHT22;38101;53.126;6.878;2023-07-24T09:24:21;20.10;99.90
52103;DHT22;38101;53.126;6.878;2023-07-24T09:26:53;20.20;99.90
52103;DHT22;38101;53.126;6.878;2023-07-24T09:29:19;20.20;99.90
52103;DHT22;38101;53.126;6.878;2023-07-24T09:31:45;20.20;99.90
52103;DHT22;38101;53.126;6.878;2023-07-24T09:34:15;20.20;99.90
52103;DHT22;38101;53.126;6.878;2023-07-24T09:36:42;20.30;99.90
52103;DHT22;38101;53.126;6.878;2023-07-24T09:39:08;20.30;99.90
52103;DHT22;38101;53.126;6.878;2023-07-24T09:41:36;20.40;99.90
52103;DHT22;38101;53.126;6.878;2023-07-24T09:44:02;20.30;99.90
52103;DHT22;38101;53.126;6.878;2023-07-24T09:46:27;20.40;99.90
52103;DHT22;38101;53.126;6.878;2023-07-24T09:48:56;20.40;99.90
52103;DHT22;38101;53.126;6.878;2023-07-24T09:51:23;20.50;99.90
52103;DHT22;38101;53.126;6.878;2023-07-24T09:56:35;20.70;99.90
52103;DHT22;38101;53.126;6.878;2023-07-24T09:59:02;20.90;99.90
52103;DHT22;38101;53.126;6.878;2023-07-24T10:01:29;21.10;99.90
52103;DHT22;38101;53.126;6.878;2023-07-24T10:03:56;21.40;99.90
52103;DHT22;38101;53.126;6.878;2023-07-24T10:06:24;21.50;99.90
52103;DHT22;38101;53.126;6.878;2023-07-24T10:08:51;21.60;99.90
52103;DHT22;38101;53.126;6.878;2023-07-24T10:11:18;21.70;99.90
52103;DHT22;38101;53.126;6.878;2023-07-24T10:13:44;21.80;99.90
52103;DHT22;38101;53.126;6.878;2023-07-24T10:16:10;21.90;99.90
52103;DHT22;38101;53.126;6.878;2023-07-24T10:18:45;22.00;99.90
52103;DHT22;38101;53.126;6.878;2023-07-24T10:21:12;22.10;99.90
52103;DHT22;38101;53.126;6.878;2023-07-24T10:23:42;22.20;99.90
52103;DHT22;38101;53.126;6.878;2023-07-24T10:26:09;22.20;99.90
52103;DHT22;38101;53.126;6.878;2023-07-24T10:28:37;22.40;99.90
52103;DHT22;38101;53.126;6.878;2023-07-24T10:31:23;22.50;99.90
52103;DHT22;38101;53.126;6.878;2023-07-24T10:33:50;22.50;99.90
52103;DHT22;38101;53.126;6.878;2023-07-24T10:36:20;22.40;99.90
52103;DHT22;38101;53.126;6.878;2023-07-24T10:38:52;22.40;99.90
52103;DHT22;38101;53.126;6.878;2023-07-24T10:41:18;22.50;99.90
52103;DHT22;38101;53.126;6.878;2023-07-24T10:43:51;22.50;99.90
52103;DHT22;38101;53.126;6.878;2023-07-24T10:46:18;22.60;99.90
52103;DHT22;38101;53.126;6.878;2023-07-24T10:48:52;22.60;99.90
52103;DHT22;38101;53.126;6.878;2023-07-24T10:51:17;22.60;99.90
52103;DHT22;38101;53.126;6.878;2023-07-24T10:53:47;22.60;99.90
52103;DHT22;38101;53.126;6.878;2023-07-24T10:56:14;22.70;99.90
52103;DHT22;38101;53.126;6.878;2023-07-24T10:58:40;22.70;99.90
52103;DHT22;38101;53.126;6.878;2023-07-24T11:01:07;22.80;99.90
52103;DHT22;38101;53.126;6.878;2023-07-24T11:03:35;22.90;99.90
52103;DHT22;38101;53.126;6.878;2023-07-24T11:06:02;23.10;99.90
52103;DHT22;38101;53.126;6.878;2023-07-24T11:08:28;23.20;99.90
52103;DHT22;38101;53.126;6.878;2023-07-24T11:10:58;23.30;99.90
52103;DHT22;38101;53.126;6.878;2023-07-24T11:13:28;23.30;99.90
52103;DHT22;38101;53.126;6.878;2023-07-24T11:15:54;23.40;99.90
52103;DHT22;38101;53.126;6.878;2023-07-24T11:18:21;23.60;99.90
52103;DHT22;38101;53.126;6.878;2023-07-24T11:20:53;23.80;99.90
52103;DHT22;38101;53.126;6.878;2023-07-24T11:23:19;23.80;99.90
52103;DHT22;38101;53.126;6.878;2023-07-24T11:25:45;23.80;99.90
52103;DHT22;38101;53.126;6.878;2023-07-24T11:28:13;23.70;99.90
52103;DHT22;38101;53.126;6.878;2023-07-24T11:30:40;23.70;99.90
52103;DHT22;38101;53.126;6.878;2023-07-24T11:33:08;23.50;99.90
52103;DHT22;38101;53.126;6.878;2023-07-24T11:35:35;23.40;99.90
52103;DHT22;38101;53.126;6.878;2023-07-24T11:38:02;23.20;99.90
52103;DHT22;38101;53.126;6.878;2023-07-24T11:43:01;22.90;99.90
52103;DHT22;38101;53.126;6.878;2023-07-24T11:45:27;22.70;99.90
52103;DHT22;38101;53.126;6.878;2023-07-24T11:47:53;22.60;99.90
52103;DHT22;38101;53.126;6.878;2023-07-24T11:50:22;22.60;99.90
52103;DHT22;38101;53.126;6.878;2023-07-24T11:52:50;22.60;99.90
52103;DHT22;38101;53.126;6.878;2023-07-24T11:55:30;22.60;99.90
52103;DHT22;38101;53.126;6.878;2023-07-24T11:58:00;22.60;99.90
52103;DHT22;38101;53.126;6.878;2023-07-24T12:00:27;22.60;99.90
52103;DHT22;38101;53.126;6.878;2023-07-24T12:02:58;22.50;99.90
52103;DHT22;38101;53.126;6.878;2023-07-24T12:05:25;22.50;99.90
52103;DHT22;38101;53.126;6.878;2023-07-24T12:07:54;22.40;99.90
52103;DHT22;38101;53.126;6.878;2023-07-24T12:10:27;22.40;99.90
52103;DHT22;38101;53.126;6.878;2023-07-24T12:12:54;22.50;99.90
52103;DHT22;38101;53.126;6.878;2023-07-24T12:15:20;22.60;99.90
52103;DHT22;38101;53.126;6.878;2023-07-24T12:17:45;22.80;99.90
52103;DHT22;38101;53.126;6.878;2023-07-24T12:20:11;23.00;99.90
52103;DHT22;38101;53.126;6.878;2023-07-24T12:22:38;23.20;99.90
52103;DHT22;38101;53.126;6.878;2023-07-24T12:25:05;23.30;99.90
52103;DHT22;38101;53.126;6.878;2023-07-24T12:27:31;23.40;99.90
52103;DHT22;38101;53.126;6.878;2023-07-24T12:29:57;23.50;99.90
52103;DHT22;38101;53.126;6.878;2023-07-24T12:32:23;23.50;99.90
52103;DHT22;38101;53.126;6.878;2023-07-24T12:34:53;23.60;99.90
52103;DHT22;38101;53.126;6.878;2023-07-24T12:37:19;23.70;99.90
52103;DHT22;38101;53.126;6.878;2023-07-24T12:39:46;23.60;99.90
52103;DHT22;38101;53.126;6.878;2023-07-24T12:42:13;23.50;99.90
52103;DHT22;38101;53.126;6.878;2023-07-24T12:44:38;23.40;99.90
52103;DHT22;38101;53.126;6.878;2023-07-24T12:47:04;23.30;99.90
52103;DHT22;38101;53.126;6.878;2023-07-24T12:49:31;23.00;99.90
52103;DHT22;38101;53.126;6.878;2023-07-24T12:51:56;22.90;99.90
52103;DHT22;38101;53.126;6.878;2023-07-24T12:54:22;22.80;99.90
52103;DHT22;38101;53.126;6.878;2023-07-24T12:56:49;22.70;99.90
52103;DHT22;38101;53.126;6.878;2023-07-24T12:59:16;22.60;99.90
52103;DHT22;38101;53.126;6.878;2023-07-24T13:01:42;22.40;99.90
52103;DHT22;38101;53.126;6.878;2023-07-24T13:04:08;22.40;99.90
52103;DHT22;38101;53.126;6.878;2023-07-24T13:06:34;22.40;99.90
52103;DHT22;38101;53.126;6.878;2023-07-24T13:09:00;22.00;99.90
52103;DHT22;38101;53.126;6.878;2023-07-24T13:11:25;21.70;99.90
52103;DHT22;38101;53.126;6.878;2023-07-24T13:13:53;21.30;99.90
52103;DHT22;38101;53.126;6.878;2023-07-24T13:16:19;20.80;99.90
52103;DHT22;38101;53.126;6.878;2023-07-24T13:18:45;20.40;99.90
52103;DHT22;38101;53.126;6.878;2023-07-24T13:21:11;20.00;99.90
52103;DHT22;38101;53.126;6.878;2023-07-24T13:23:36;19.80;99.90
52103;DHT22;38101;53.126;6.878;2023-07-24T13:26:02;19.70;99.90
52103;DHT22;38101;53.126;6.878;2023-07-24T13:28:28;19.70;99.90
52103;DHT22;38101;53.126;6.878;2023-07-24T13:30:54;19.70;99.90
52103;DHT22;38101;53.126;6.878;2023-07-24T13:33:20;20.00;99.90
52103;DHT22;38101;53.126;6.878;2023-07-24T13:35:48;20.20;99.90
52103;DHT22;38101;53.126;6.878;2023-07-24T13:38:16;20.60;99.90
52103;DHT22;38101;53.126;6.878;2023-07-24T13:40:41;21.00;99.90
52103;DHT22;38101;53.126;6.878;2023-07-24T13:43:07;20.90;99.90
52103;DHT22;38101;53.126;6.878;2023-07-24T13:45:33;20.80;99.90
52103;DHT22;38101;53.126;6.878;2023-07-24T13:47:58;20.70;99.90
52103;DHT22;38101;53.126;6.878;2023-07-24T13:50:24;20.60;99.90
52103;DHT22;38101;53.126;6.878;2023-07-24T13:52:50;20.50;99.90
52103;DHT22;38101;53.126;6.878;2023-07-24T13:55:15;20.40;99.90
52103;DHT22;38101;53.126;6.878;2023-07-24T13:57:41;20.30;99.90
52103;DHT22;38101;53.126;6.878;2023-07-24T14:00:07;20.30;99.90
52103;DHT22;38101;53.126;6.878;2023-07-24T14:02:33;20.20;99.90
52103;DHT22;38101;53.126;6.878;2023-07-24T14:04:59;20.10;99.90
52103;DHT22;38101;53.126;6.878;2023-07-24T14:07:24;20.00;99.90
52103;DHT22;38101;53.126;6.878;2023-07-24T14:09:50;20.00;99.90
52103;DHT22;38101;53.126;6.878;2023-07-24T14:12:16;19.90;99.90
52103;DHT22;38101;53.126;6.878;2023-07-24T14:14:41;19.90;99.90
52103;DHT22;38101;53.126;6.878;2023-07-24T14:17:07;19.80;99.90
52103;DHT22;38101;53.126;6.878;2023-07-24T14:19:33;19.80;99.90
52103;DHT22;38101;53.126;6.878;2023-07-24T14:21:58;19.80;99.90
52103;DHT22;38101;53.126;6.878;2023-07-24T14:24:24;19.70;99.90
52103;DHT22;38101;53.126;6.878;2023-07-24T14:26:50;19.70;99.90
52103;DHT22;38101;53.126;6.878;2023-07-24T14:29:15;19.60;99.90
52103;DHT22;38101;53.126;6.878;2023-07-24T14:31:44;19.70;99.90
52103;DHT22;38101;53.126;6.878;2023-07-24T14:34:10;19.70;99.90
52103;DHT22;38101;53.126;6.878;2023-07-24T14:36:38;19.70;99.90
52103;DHT22;38101;53.126;6.878;2023-07-24T14:39:05;19.50;99.90
52103;DHT22;38101;53.126;6.878;2023-07-24T14:41:30;19.50;99.90
52103;DHT22;38101;53.126;6.878;2023-07-24T14:43:56;19.40;99.90
52103;DHT22;38101;53.126;6.878;2023-07-24T14:46:22;19.40;99.90
52103;DHT22;38101;53.126;6.878;2023-07-24T14:48:49;19.40;99.90
52103;DHT22;38101;53.126;6.878;2023-07-24T14:51:14;19.40;99.90
52103;DHT22;38101;53.126;6.878;2023-07-24T14:53:40;19.30;99.90
52103;DHT22;38101;53.126;6.878;2023-07-24T14:56:06;19.40;99.90
52103;DHT22;38101;53.126;6.878;2023-07-24T14:58:32;19.40;99.90
52103;DHT22;38101;53.126;6.878;2023-07-24T15:00:57;19.30;99.90
52103;DHT22;38101;53.126;6.878;2023-07-24T15:03:23;19.30;99.90
52103;DHT22;38101;53.126;6.878;2023-07-24T15:05:49;19.40;99.90
52103;DHT22;38101;53.126;6.878;2023-07-24T15:08:14;19.30;99.90
52103;DHT22;38101;53.126;6.878;2023-07-24T15:10:40;19.30;99.90
52103;DHT22;38101;53.126;6.878;2023-07-24T15:13:08;19.30;99.90
52103;DHT22;38101;53.126;6.878;2023-07-24T15:15:34;19.50;99.90
52103;DHT22;38101;53.126;6.878;2023-07-24T15:18:00;19.60;99.90
52103;DHT22;38101;53.126;6.878;2023-07-24T15:20:26;19.60;99.90
52103;DHT22;38101;53.126;6.878;2023-07-24T15:22:51;19.50;99.90
52103;DHT22;38101;53.126;6.878;2023-07-24T15:25:20;19.50;99.90
52103;DHT22;38101;53.126;6.878;2023-07-24T15:27:46;19.50;99.90
52103;DHT22;38101;53.126;6.878;2023-07-24T15:30:14;19.70;99.90